createdAt,value
2023-07-27T00:00:15.828Z,1.50
2023-07-27T00:02:43.352Z,1.88
2023-07-27T00:05:14.346Z,2.30
2023-07-27T00:07:43.544Z,2.63
2023-07-27T00:10:11.133Z,2.65
2023-07-27T00:12:38.082Z,2.15
2023-07-27T00:15:05.379Z,1.83
2023-07-27T00:17:34.483Z,2.28
2023-07-27T00:20:06.384Z,2.75
2023-07-27T00:22:33.385Z,2.50
2023-07-27T00:25:00.366Z,3.53
2023-07-27T00:27:27.352Z,4.78
2023-07-27T00:29:54.460Z,2.90
2023-07-27T00:32:21.408Z,2.97
2023-07-27T00:34:53.561Z,2.63
2023-07-27T00:37:22.644Z,3.25
2023-07-27T00:39:52.123Z,2.72
2023-07-27T00:42:19.084Z,2.03
2023-07-27T00:44:46.080Z,1.83
2023-07-27T00:47:16.036Z,2.95
2023-07-27T00:49:42.980Z,3.17
2023-07-27T00:52:09.967Z,1.92
2023-07-27T00:54:39.443Z,1.95
2023-07-27T00:57:07.774Z,5.53
2023-07-27T00:59:37.126Z,1.85
2023-07-27T01:02:06.725Z,2.47
2023-07-27T01:04:41.442Z,1.48
2023-07-27T01:07:13.010Z,2.88
2023-07-27T01:09:42.049Z,1.05
2023-07-27T01:12:22.032Z,0.85
2023-07-27T01:15:14.403Z,1.13
2023-07-27T01:18:04.031Z,1.50
2023-07-27T01:20:33.232Z,1.60
2023-07-27T01:23:25.608Z,1.08
2023-07-27T01:26:19.324Z,1.42
2023-07-27T01:29:10.464Z,1.85
2023-07-27T01:31:47.275Z,2.20
2023-07-27T01:34:30.660Z,2.10
2023-07-27T01:37:05.315Z,1.50
2023-07-27T01:39:34.231Z,3.03
2023-07-27T01:42:01.333Z,1.77
2023-07-27T01:44:29.810Z,2.13
2023-07-27T01:46:56.817Z,2.60
2023-07-27T01:49:26.325Z,2.05
2023-07-27T01:51:55.836Z,1.83
2023-07-27T01:54:25.031Z,1.27
2023-07-27T01:56:54.115Z,2.88
2023-07-27T01:59:21.125Z,1.88
2023-07-27T02:01:48.531Z,2.22
2023-07-27T02:04:15.805Z,2.25
2023-07-27T02:06:42.794Z,2.17
2023-07-27T02:09:11.893Z,2.58
2023-07-27T02:11:40.989Z,2.42
2023-07-27T02:14:23.722Z,1.55
2023-07-27T02:17:01.937Z,1.25
2023-07-27T02:19:31.131Z,1.25
2023-07-27T02:21:58.177Z,1.45
2023-07-27T02:24:29.793Z,1.67
2023-07-27T02:26:59.847Z,1.30
2023-07-27T02:29:29.059Z,1.55
2023-07-27T02:31:58.285Z,2.08
2023-07-27T02:34:25.220Z,1.50
2023-07-27T02:36:52.150Z,2.25
2023-07-27T02:39:21.447Z,2.65
2023-07-27T02:41:50.712Z,1.33
2023-07-27T02:44:20.693Z,1.23
2023-07-27T02:46:52.424Z,2.03
2023-07-27T02:49:19.447Z,0.95
2023-07-27T02:51:49.105Z,1.70
2023-07-27T02:54:16.431Z,0.93
2023-07-27T02:56:45.593Z,2.65
2023-07-27T02:59:14.787Z,2.22
2023-07-27T03:01:45.259Z,1.33
2023-07-27T03:04:18.297Z,2.33
2023-07-27T03:06:45.454Z,3.67
2023-07-27T03:09:13.195Z,2.78
2023-07-27T03:11:40.854Z,1.10
2023-07-27T03:14:09.914Z,2.58
2023-07-27T03:16:37.226Z,2.92
2023-07-27T03:19:04.615Z,1.42
2023-07-27T03:21:31.616Z,3.60
2023-07-27T03:23:58.633Z,0.80
2023-07-27T03:26:27.898Z,1.15
2023-07-27T03:28:55.282Z,1.38
2023-07-27T03:31:27.534Z,1.20
2023-07-27T03:33:54.586Z,1.55
2023-07-27T03:36:21.897Z,1.50
2023-07-27T03:38:49.057Z,2.90
2023-07-27T03:41:20.938Z,1.30
2023-07-27T03:43:50.302Z,1.80
2023-07-27T03:46:17.336Z,1.70
2023-07-27T03:48:48.120Z,1.48
2023-07-27T03:51:17.453Z,1.33
2023-07-27T03:53:44.458Z,1.02
2023-07-27T03:56:11.545Z,1.10
2023-07-27T03:58:39.232Z,4.80
2023-07-27T04:01:06.270Z,1.55
2023-07-27T04:03:33.288Z,3.15
2023-07-27T04:06:05.099Z,2.85
2023-07-27T04:08:34.520Z,1.20
2023-07-27T04:11:01.588Z,1.55
2023-07-27T04:13:28.505Z,1.77
2023-07-27T04:15:55.475Z,3.25
2023-07-27T04:18:22.522Z,1.17
2023-07-27T04:20:49.692Z,1.80
2023-07-27T04:23:18.791Z,1.70
2023-07-27T04:25:48.127Z,1.75
2023-07-27T04:28:18.250Z,1.58
2023-07-27T04:30:47.385Z,2.35
2023-07-27T04:33:14.394Z,0.77
2023-07-27T04:35:41.411Z,1.10
2023-07-27T04:38:10.504Z,1.13
2023-07-27T04:40:37.535Z,1.25
2023-07-27T04:43:07.157Z,1.77
2023-07-27T04:45:34.152Z,0.82
2023-07-27T04:48:04.861Z,1.98
2023-07-27T04:50:31.914Z,1.73
2023-07-27T04:53:01.013Z,1.83
2023-07-27T04:55:28.188Z,1.27
2023-07-27T04:57:55.109Z,2.30
2023-07-27T05:00:24.461Z,0.95
2023-07-27T05:02:51.409Z,1.10
2023-07-27T05:05:18.382Z,1.50
2023-07-27T05:07:47.939Z,1.67
2023-07-27T05:10:14.999Z,2.10
2023-07-27T05:12:41.994Z,2.00
2023-07-27T05:15:09.277Z,0.95
2023-07-27T05:17:38.668Z,0.90
2023-07-27T05:20:11.086Z,2.60
2023-07-27T05:22:38.085Z,1.13
2023-07-27T05:25:09.371Z,1.55
2023-07-27T05:27:41.054Z,2.72
2023-07-27T05:30:08.676Z,2.47
2023-07-27T05:32:35.728Z,1.38
2023-07-27T05:35:03.143Z,2.67
2023-07-27T05:37:32.555Z,3.60
2023-07-27T05:40:01.757Z,1.48
2023-07-27T05:42:31.532Z,1.65
2023-07-27T05:44:58.625Z,1.83
2023-07-27T05:47:28.115Z,1.60
2023-07-27T05:49:59.373Z,2.58
2023-07-27T05:52:27.018Z,2.95
2023-07-27T05:54:53.972Z,2.03
2023-07-27T05:57:23.388Z,2.10
2023-07-27T06:00:04.339Z,3.50
2023-07-27T06:02:38.400Z,2.03
2023-07-27T06:05:08.441Z,1.98
2023-07-27T06:07:37.933Z,2.58
2023-07-27T06:10:05.133Z,2.40
2023-07-27T06:12:34.388Z,3.05
2023-07-27T06:15:01.417Z,3.80
2023-07-27T06:17:29.354Z,1.80
2023-07-27T06:19:56.406Z,2.33
2023-07-27T06:22:25.620Z,1.90
2023-07-27T06:24:57.226Z,2.00
2023-07-27T06:27:24.342Z,2.97
2023-07-27T06:29:51.297Z,2.17
2023-07-27T06:32:21.084Z,2.65
2023-07-27T06:34:50.477Z,2.92
2023-07-27T06:37:17.430Z,2.22
2023-07-27T06:39:46.613Z,2.30
2023-07-27T06:42:15.882Z,3.15
2023-07-27T06:44:43.404Z,3.30
2023-07-27T06:47:12.808Z,3.60
2023-07-27T06:49:39.886Z,3.78
2023-07-27T06:52:10.357Z,2.58
2023-07-27T06:54:41.030Z,2.75
2023-07-27T06:57:11.342Z,1.75
2023-07-27T06:59:38.585Z,2.55
2023-07-27T07:02:05.965Z,1.50
2023-07-27T07:04:33.598Z,7.78
2023-07-27T07:07:04.027Z,2.92
2023-07-27T07:09:36.864Z,2.28
2023-07-27T07:12:07.073Z,1.95
2023-07-27T07:14:34.323Z,3.45
2023-07-27T07:17:01.992Z,2.65
2023-07-27T07:19:29.016Z,1.90
2023-07-27T07:21:55.946Z,2.33
2023-07-27T07:24:22.965Z,1.75
2023-07-27T07:26:52.260Z,1.65
2023-07-27T07:29:27.993Z,2.35
2023-07-27T07:31:55.022Z,2.55
2023-07-27T07:34:24.221Z,2.03
2023-07-27T07:36:51.200Z,2.95
2023-07-27T07:39:18.326Z,1.92
2023-07-27T07:41:47.643Z,1.83
2023-07-27T07:44:16.851Z,4.00
2023-07-27T07:46:46.064Z,2.40
2023-07-27T07:49:13.025Z,1.67
2023-07-27T07:51:39.984Z,2.22
2023-07-27T07:54:08.984Z,1.65
2023-07-27T07:56:38.164Z,1.58
2023-07-27T07:59:05.183Z,3.03
2023-07-27T08:01:36.849Z,3.15
2023-07-27T08:04:04.037Z,1.88
2023-07-27T08:06:31.234Z,1.98
2023-07-27T08:09:00.842Z,2.70
2023-07-27T08:11:30.187Z,1.50
2023-07-27T08:14:00.136Z,1.98
2023-07-27T08:16:27.196Z,1.90
2023-07-27T08:18:56.378Z,1.77
2023-07-27T08:21:23.347Z,2.45
2023-07-27T08:23:53.561Z,2.08
2023-07-27T08:26:22.864Z,2.53
2023-07-27T08:28:51.977Z,3.40
2023-07-27T08:31:21.251Z,1.77
2023-07-27T08:33:48.281Z,2.05
2023-07-27T08:36:15.248Z,2.92
2023-07-27T08:38:42.861Z,2.17
2023-07-27T08:41:12.108Z,1.75
2023-07-27T08:43:39.126Z,4.18
2023-07-27T08:46:06.278Z,4.30
2023-07-27T08:48:33.292Z,2.67
2023-07-27T08:51:00.285Z,2.88
2023-07-27T08:53:27.471Z,3.22
2023-07-27T08:55:54.572Z,4.72
2023-07-27T08:58:21.714Z,4.00
2023-07-27T09:00:51.009Z,3.13
2023-07-27T09:03:18.083Z,4.03
2023-07-27T09:05:56.333Z,3.00
2023-07-27T09:08:23.337Z,4.00
2023-07-27T09:10:50.340Z,4.05
2023-07-27T09:13:21.830Z,4.85
2023-07-27T09:15:51.833Z,6.00
2023-07-27T09:18:21.195Z,4.28
2023-07-27T09:20:50.715Z,3.35
2023-07-27T09:23:25.427Z,4.13
2023-07-27T09:25:55.848Z,4.32
2023-07-27T09:28:27.144Z,4.43
2023-07-27T09:31:04.758Z,4.78
2023-07-27T09:33:32.100Z,4.72
2023-07-27T09:36:05.032Z,4.60
2023-07-27T09:38:34.282Z,4.22
2023-07-27T09:41:07.934Z,8.13
2023-07-27T09:43:41.087Z,5.20
2023-07-27T09:46:08.976Z,5.28
2023-07-27T09:48:35.962Z,4.55
2023-07-27T09:51:03.262Z,5.13
2023-07-27T09:53:33.077Z,5.35
2023-07-27T09:56:01.294Z,3.83
2023-07-27T09:58:34.267Z,6.55
2023-07-27T10:01:03.758Z,4.57
2023-07-27T10:03:30.880Z,4.10
2023-07-27T10:06:00.281Z,5.55
2023-07-27T10:08:27.307Z,5.07
2023-07-27T10:10:59.348Z,5.40
2023-07-27T10:15:58.567Z,3.67
2023-07-27T10:18:28.947Z,5.22
2023-07-27T10:21:16.208Z,4.35
2023-07-27T10:23:52.679Z,3.13
2023-07-27T10:26:22.550Z,4.40
2023-07-27T10:28:51.740Z,4.88
2023-07-27T10:31:20.531Z,3.28
2023-07-27T10:34:24.582Z,3.10
2023-07-27T10:37:00.700Z,2.83
2023-07-27T10:39:34.589Z,3.33
2023-07-27T10:42:13.576Z,4.05
2023-07-27T10:44:43.326Z,3.25
2023-07-27T10:47:11.317Z,2.75
2023-07-27T10:49:45.414Z,2.60
2023-07-27T10:52:19.392Z,2.60
2023-07-27T10:54:49.094Z,3.30
2023-07-27T10:57:19.220Z,3.15
2023-07-27T10:59:51.111Z,2.97
2023-07-27T11:02:19.023Z,2.70
2023-07-27T11:04:46.340Z,2.90
2023-07-27T11:07:16.555Z,2.70
2023-07-27T11:09:48.866Z,2.80
2023-07-27T11:12:18.013Z,3.25
2023-07-27T11:14:47.088Z,3.25
2023-07-27T11:17:14.139Z,2.67
2023-07-27T11:19:44.300Z,2.58
2023-07-27T11:22:14.426Z,5.32
2023-07-27T11:24:46.526Z,2.50
2023-07-27T11:27:15.716Z,3.78
2023-07-27T11:29:46.588Z,2.40
2023-07-27T11:32:13.645Z,2.40
2023-07-27T11:34:40.601Z,2.85
2023-07-27T11:37:09.714Z,2.35
2023-07-27T11:39:36.767Z,3.33
2023-07-27T11:42:10.917Z,3.55
2023-07-27T11:44:37.879Z,2.75
2023-07-27T11:47:05.008Z,2.45
2023-07-27T11:49:34.116Z,3.10
2023-07-27T11:52:01.073Z,3.92
2023-07-27T11:54:33.379Z,3.47
2023-07-27T11:57:03.300Z,5.35
2023-07-27T11:59:33.781Z,2.58
2023-07-27T12:02:02.968Z,3.88
2023-07-27T12:04:30.168Z,5.18
2023-07-27T12:07:00.153Z,3.58
2023-07-27T12:09:28.506Z,4.57
2023-07-27T12:11:57.720Z,3.60
2023-07-27T12:14:24.664Z,3.78
2023-07-27T12:19:23.044Z,2.67
2023-07-27T12:21:55.888Z,3.40
2023-07-27T12:34:30.189Z,5.03
2023-07-27T12:39:27.171Z,3.17
2023-07-27T12:44:28.551Z,4.93
2023-07-27T12:46:58.041Z,5.55
2023-07-27T12:49:27.287Z,3.83
2023-07-27T12:51:56.792Z,4.03
2023-07-27T12:54:25.970Z,4.53
2023-07-27T12:56:52.947Z,4.43
2023-07-27T12:59:23.061Z,3.47
2023-07-27T13:01:50.206Z,3.38
2023-07-27T13:04:17.219Z,4.43
2023-07-27T13:06:44.175Z,3.70
2023-07-27T13:09:11.156Z,5.25
2023-07-27T13:11:40.626Z,3.50
2023-07-27T13:14:14.361Z,5.05
2023-07-27T13:16:41.444Z,3.03
2023-07-27T13:19:10.829Z,2.90
2023-07-27T13:21:37.784Z,4.38
2023-07-27T13:24:05.030Z,4.22
2023-07-27T13:26:31.992Z,3.67
2023-07-27T13:28:58.966Z,3.53
2023-07-27T13:31:25.987Z,4.68
2023-07-27T13:33:52.964Z,3.40
2023-07-27T13:36:20.076Z,3.72
2023-07-27T13:38:49.356Z,4.10
2023-07-27T13:41:16.349Z,4.13
2023-07-27T13:43:46.060Z,3.88
2023-07-27T13:46:15.428Z,3.17
2023-07-27T13:48:47.228Z,3.58
2023-07-27T13:51:14.238Z,4.57
2023-07-27T13:53:41.202Z,4.07
2023-07-27T13:56:08.210Z,4.00
2023-07-27T13:58:35.194Z,4.43
2023-07-27T14:01:02.276Z,3.85
2023-07-27T14:03:29.380Z,3.92
2023-07-27T14:05:56.499Z,3.85
2023-07-27T14:08:25.802Z,4.80
2023-07-27T14:10:52.764Z,3.42
2023-07-27T14:13:19.763Z,4.00
2023-07-27T14:15:49.384Z,3.78
2023-07-27T14:18:16.414Z,3.28
2023-07-27T14:20:47.953Z,4.07
2023-07-27T14:23:15.000Z,3.00
2023-07-27T14:25:46.336Z,4.60
2023-07-27T14:28:13.975Z,4.78
2023-07-27T14:30:49.598Z,2.35
2023-07-27T14:33:24.287Z,3.67
2023-07-27T14:35:51.230Z,2.53
2023-07-27T14:38:18.200Z,2.20
2023-07-27T14:40:46.911Z,3.50
2023-07-27T14:43:16.227Z,3.25
2023-07-27T14:45:43.265Z,5.60
2023-07-27T14:48:12.744Z,2.70
2023-07-27T14:50:42.190Z,3.40
2023-07-27T14:53:09.110Z,3.95
2023-07-27T14:55:36.067Z,2.67
2023-07-27T14:58:03.088Z,3.55
2023-07-27T15:05:32.291Z,2.80
2023-07-27T15:07:59.997Z,3.85
2023-07-27T15:10:38.002Z,3.58
2023-07-27T15:13:06.309Z,3.50
2023-07-27T15:15:36.404Z,3.03
2023-07-27T15:18:04.952Z,2.47
2023-07-27T15:20:31.985Z,2.60
2023-07-27T15:22:58.954Z,3.80
2023-07-27T15:25:25.930Z,3.15
2023-07-27T15:27:52.973Z,4.78
2023-07-27T15:30:20.002Z,3.67
2023-07-27T15:32:49.173Z,4.68
2023-07-27T15:35:16.278Z,3.80
2023-07-27T15:37:43.305Z,4.30
2023-07-27T15:40:12.667Z,4.15
2023-07-27T15:42:42.223Z,4.72
2023-07-27T15:45:13.978Z,4.50
2023-07-27T15:47:41.261Z,4.07
2023-07-27T15:50:11.009Z,4.47
2023-07-27T15:52:41.618Z,3.20
2023-07-27T15:55:10.051Z,4.55
2023-07-27T15:57:37.158Z,3.58
2023-07-27T16:00:04.808Z,4.10
2023-07-27T16:02:33.229Z,4.65
2023-07-27T16:05:06.231Z,4.72
2023-07-27T16:07:33.267Z,4.30
2023-07-27T16:10:00.613Z,3.53
2023-07-27T16:12:35.692Z,4.38
2023-07-27T16:15:02.718Z,3.70
2023-07-27T16:17:31.937Z,4.38
2023-07-27T16:19:59.126Z,4.25
2023-07-27T16:22:28.385Z,3.78
2023-07-27T16:24:57.917Z,3.90
2023-07-27T16:27:29.720Z,4.35
2023-07-27T16:29:56.754Z,3.78
2023-07-27T16:32:26.268Z,4.13
2023-07-27T16:34:57.872Z,2.78
2023-07-27T16:37:24.909Z,2.38
2023-07-27T16:39:53.389Z,3.35
2023-07-27T16:42:20.358Z,4.03
2023-07-27T16:44:47.402Z,5.28
2023-07-27T16:47:19.923Z,5.07
2023-07-27T16:49:47.467Z,3.92
2023-07-27T16:52:16.796Z,3.25
2023-07-27T16:54:48.180Z,4.10
2023-07-27T16:57:15.161Z,3.95
2023-07-27T16:59:46.811Z,5.93
2023-07-27T17:02:15.118Z,3.15
2023-07-27T17:04:42.177Z,3.70
2023-07-27T17:07:11.189Z,5.72
2023-07-27T17:09:40.369Z,2.95
2023-07-27T17:12:09.004Z,2.95
2023-07-27T17:14:37.556Z,2.97
2023-07-27T17:17:09.692Z,3.05
2023-07-27T17:19:39.196Z,3.42
2023-07-27T17:22:06.196Z,2.47
2023-07-27T17:24:33.161Z,4.20
2023-07-27T17:27:00.142Z,3.00
2023-07-27T17:29:29.620Z,3.97
2023-07-27T17:31:56.645Z,3.85
2023-07-27T17:34:29.917Z,4.25
2023-07-27T17:36:58.772Z,4.38
2023-07-27T17:39:25.831Z,4.35
2023-07-27T17:41:52.800Z,4.40
2023-07-27T17:44:19.791Z,3.47
2023-07-27T17:46:51.408Z,4.60
2023-07-27T17:49:18.369Z,2.85
2023-07-27T17:51:49.843Z,5.28
2023-07-27T17:54:17.042Z,3.75
2023-07-27T17:56:44.007Z,3.25
2023-07-27T17:59:13.531Z,4.78
2023-07-27T18:01:43.039Z,3.92
2023-07-27T18:04:10.013Z,4.18
2023-07-27T18:06:39.254Z,2.85
2023-07-27T18:09:06.464Z,3.90
2023-07-27T18:11:33.692Z,4.70
2023-07-27T18:14:01.033Z,4.88
2023-07-27T18:16:28.089Z,4.15
2023-07-27T18:18:58.338Z,4.10
2023-07-27T18:21:27.878Z,4.75
2023-07-27T18:23:54.849Z,4.32
2023-07-27T18:26:23.878Z,4.65
2023-07-27T18:28:50.959Z,5.03
2023-07-27T18:31:19.444Z,4.80
2023-07-27T18:33:50.586Z,5.85
2023-07-27T18:36:17.709Z,4.38
2023-07-27T18:38:45.727Z,4.53
2023-07-27T18:41:14.000Z,5.45
2023-07-27T18:43:46.083Z,6.57
2023-07-27T18:46:19.264Z,6.00
2023-07-27T18:48:46.697Z,5.68
2023-07-27T18:51:13.783Z,5.43
2023-07-27T18:53:40.833Z,5.07
2023-07-27T18:56:10.285Z,4.47
2023-07-27T18:58:37.995Z,4.65
2023-07-27T19:01:05.437Z,4.28
2023-07-27T19:03:37.449Z,5.45
2023-07-27T19:08:31.392Z,5.07
2023-07-27T19:11:01.682Z,4.10
2023-07-27T19:13:30.851Z,5.13
2023-07-27T19:16:01.765Z,4.38
2023-07-27T19:18:28.786Z,6.75
2023-07-27T19:20:57.868Z,4.88
2023-07-27T19:23:27.095Z,4.50
2023-07-27T19:25:56.438Z,4.68
2023-07-27T19:28:25.696Z,6.00
2023-07-27T19:30:55.017Z,5.32
2023-07-27T19:33:21.961Z,4.53
2023-07-27T19:35:50.357Z,4.47
2023-07-27T19:38:17.347Z,7.80
2023-07-27T19:40:44.463Z,5.13
2023-07-27T19:43:14.018Z,5.05
2023-07-27T19:45:41.040Z,4.30
2023-07-27T19:48:11.368Z,6.82
2023-07-27T19:50:38.375Z,5.90
2023-07-27T19:53:05.354Z,3.97
2023-07-27T19:55:32.326Z,6.25
2023-07-27T19:58:01.516Z,4.93
2023-07-27T20:00:33.139Z,6.32
2023-07-27T20:03:00.156Z,7.60
2023-07-27T20:05:29.648Z,5.88
2023-07-27T20:08:01.478Z,6.55
2023-07-27T20:10:30.915Z,8.68
2023-07-27T20:12:57.928Z,4.80
2023-07-27T20:15:24.957Z,6.40
2023-07-27T20:17:52.020Z,5.05
2023-07-27T20:20:21.531Z,4.93
2023-07-27T20:22:48.820Z,5.30
2023-07-27T20:25:15.964Z,6.43
2023-07-27T20:27:42.957Z,4.93
2023-07-27T20:30:13.898Z,6.50
2023-07-27T20:32:45.540Z,6.53
2023-07-27T20:35:12.705Z,7.07
2023-07-27T20:37:39.700Z,7.90
2023-07-27T20:40:07.541Z,5.03
2023-07-27T20:42:34.576Z,7.07
2023-07-27T20:45:04.105Z,5.35
2023-07-27T20:47:32.761Z,5.43
2023-07-27T20:49:59.778Z,5.88
2023-07-27T20:52:26.882Z,4.70
2023-07-27T20:54:54.105Z,5.55
2023-07-27T20:57:23.300Z,8.27
2023-07-27T20:59:54.606Z,6.50
2023-07-27T21:02:24.911Z,7.28
2023-07-27T21:04:51.877Z,7.10
2023-07-27T21:07:18.809Z,5.13
2023-07-27T21:09:48.703Z,9.10
2023-07-27T21:12:18.514Z,4.90
2023-07-27T21:14:45.543Z,6.43
2023-07-27T21:17:12.561Z,6.25
2023-07-27T21:19:39.492Z,5.70
2023-07-27T21:22:06.604Z,6.35
2023-07-27T21:24:33.623Z,6.43
2023-07-27T21:27:02.853Z,6.90
2023-07-27T21:29:30.094Z,5.40
2023-07-27T21:31:57.183Z,8.38
2023-07-27T21:34:28.660Z,7.05
2023-07-27T21:36:55.808Z,5.32
2023-07-27T21:39:24.881Z,5.95
2023-07-27T21:42:00.036Z,8.43
2023-07-27T21:44:27.606Z,6.80
2023-07-27T21:46:54.750Z,7.10
2023-07-27T21:49:24.264Z,7.75
2023-07-27T21:51:51.236Z,6.55
2023-07-27T21:54:18.231Z,6.30
2023-07-27T21:56:47.525Z,7.85
2023-07-27T21:59:14.533Z,8.15
2023-07-27T22:01:41.579Z,9.63
2023-07-27T22:04:10.826Z,6.80
2023-07-27T22:06:37.876Z,6.57
2023-07-27T22:09:06.928Z,5.10
2023-07-27T22:11:36.085Z,7.43
2023-07-27T22:14:03.024Z,7.22
2023-07-27T22:16:30.078Z,6.15
2023-07-27T22:18:59.508Z,6.07
2023-07-27T22:21:28.908Z,7.53
2023-07-27T22:23:55.837Z,6.55
2023-07-27T22:26:22.803Z,6.90
2023-07-27T22:28:49.816Z,7.57
2023-07-27T22:31:16.984Z,7.05
2023-07-27T22:33:48.517Z,5.55
2023-07-27T22:36:15.509Z,6.10
2023-07-27T22:38:42.486Z,6.50
2023-07-27T22:41:11.919Z,8.43
2023-07-27T22:43:41.439Z,6.72
2023-07-27T22:46:08.502Z,7.70
2023-07-27T22:48:35.465Z,6.05
2023-07-27T22:51:07.351Z,5.72
2023-07-27T22:53:34.295Z,7.05
2023-07-27T22:56:03.627Z,8.05
2023-07-27T22:58:32.735Z,6.95
2023-07-27T23:01:13.008Z,7.53
2023-07-27T23:03:44.865Z,8.32
2023-07-27T23:06:14.438Z,6.40
2023-07-27T23:08:41.401Z,11.15
2023-07-27T23:11:10.482Z,8.82
2023-07-27T23:13:37.506Z,9.18
2023-07-27T23:16:08.909Z,8.05
2023-07-27T23:18:35.883Z,8.85
2023-07-27T23:21:07.195Z,9.50
2023-07-27T23:23:34.161Z,6.38
2023-07-27T23:26:01.135Z,6.32
2023-07-27T23:28:30.382Z,8.32
2023-07-27T23:31:02.681Z,6.47
2023-07-27T23:33:29.641Z,9.27
2023-07-27T23:35:56.620Z,7.63
2023-07-27T23:38:23.695Z,7.55
2023-07-27T23:40:50.640Z,6.53
2023-07-27T23:43:17.616Z,9.02
2023-07-27T23:45:46.965Z,6.53
2023-07-27T23:48:13.924Z,7.55
2023-07-27T23:50:43.342Z,8.45
2023-07-27T23:53:10.352Z,8.02
2023-07-27T23:55:37.296Z,7.55
2023-07-27T23:58:04.598Z,8.70
